Time;durP1;ratioP1;P1;durP2;ratioP2;P2;SDS_P1;SDS_P2;PMS_P1;PMS_P2;Temp;Humidity;BMP_temperature;BMP_pressure;BME280_temperature;BME280_humidity;BME280_pressure;Samples;Min_cycle;Max_cycle;Signal;HPM_P1;HPM_P2
2023/08/24 00:00:40;;;;;;;15.02;11.95;;;26.30;94.30;;;;;;4954291;29;20046;-77
2023/08/24 00:03:08;;;;;;;14.93;12.60;;;26.30;94.50;;;;;;4949061;29;20284;-80
2023/08/24 00:05:40;;;;;;;17.95;12.10;;;26.20;94.70;;;;;;4934854;29;20448;-79
2023/08/24 00:08:08;;;;;;;109.88;83.32;;;26.20;94.80;;;;;;4933332;29;20051;-80
2023/08/24 00:10:37;;;;;;;69.90;52.58;;;26.10;94.90;;;;;;4946019;29;20111;-80
2023/08/24 00:13:05;;;;;;;27.83;18.30;;;26.10;94.90;;;;;;4946714;29;20043;-81
2023/08/24 00:15:32;;;;;;;49.17;35.50;;;26.10;95.20;;;;;;4919772;29;20488;-82
2023/08/24 00:18:00;;;;;;;24.92;19.27;;;26.10;95.10;;;;;;4934764;29;20036;-81
2023/08/24 00:20:27;;;;;;;22.67;16.98;;;26.10;95.20;;;;;;4906964;29;20058;-80
2023/08/24 00:22:56;;;;;;;19.20;13.73;;;26.00;95.40;;;;;;4951236;29;20032;-80
2023/08/24 00:25:23;;;;;;;20.35;12.70;;;25.90;95.50;;;;;;4917812;29;20044;-80
2023/08/24 00:27:53;;;;;;;18.52;12.93;;;26.00;95.30;;;;;;4910717;29;20472;-78
2023/08/24 00:30:28;;;;;;;15.27;11.65;;;26.00;95.20;;;;;;5026317;23;20100;-81
2023/08/24 00:32:57;;;;;;;17.75;12.50;;;26.00;95.30;;;;;;4929330;29;20059;-86
2023/08/24 00:35:25;;;;;;;16.02;12.40;;;25.80;95.60;;;;;;4922970;29;20407;-82
2023/08/24 00:37:55;;;;;;;16.73;12.40;;;25.90;95.50;;;;;;4946696;29;20047;-85
2023/08/24 00:40:25;;;;;;;18.35;13.15;;;25.90;96.30;;;;;;4908651;29;20115;-80
2023/08/24 00:42:55;;;;;;;16.97;12.43;;;25.80;96.90;;;;;;4882176;29;20036;-80
2023/08/24 00:45:22;;;;;;;16.98;12.52;;;25.70;97.20;;;;;;4900974;29;20038;-80
2023/08/24 00:47:51;;;;;;;17.45;12.70;;;25.80;97.40;;;;;;4924390;29;20056;-80
2023/08/24 00:50:20;;;;;;;19.30;13.52;;;25.80;97.60;;;;;;4915080;29;20036;-77
2023/08/24 00:52:49;;;;;;;18.05;12.80;;;25.70;97.70;;;;;;4941161;29;20044;-79
2023/08/24 00:55:17;;;;;;;23.40;13.40;;;25.70;98.00;;;;;;4926428;29;20743;-79
2023/08/24 00:57:45;;;;;;;19.30;13.07;;;25.60;98.10;;;;;;4940000;29;20043;-81
2023/08/24 01:00:13;;;;;;;17.92;12.95;;;25.50;98.30;;;;;;4938373;29;20395;-85
2023/08/24 01:02:41;;;;;;;19.33;13.10;;;25.40;99.00;;;;;;4940066;29;20034;-79
2023/08/24 01:05:08;;;;;;;18.08;12.52;;;25.30;99.00;;;;;;4937468;29;20404;-81
2023/08/24 01:07:49;;;;;;;21.70;12.48;;;25.40;99.30;;;;;;4914995;29;20430;-78
2023/08/24 01:10:17;;;;;;;18.33;12.73;;;25.40;99.50;;;;;;4919984;29;20052;-80
2023/08/24 01:13:08;;;;;;;17.95;12.60;;;25.50;99.40;;;;;;4936904;29;20060;-81
2023/08/24 01:15:58;;;;;;;16.30;12.45;;;25.60;99.40;;;;;;4932536;29;20122;-78
2023/08/24 01:18:26;;;;;;;16.10;12.40;;;25.50;99.30;;;;;;4926117;29;20373;-79
2023/08/24 01:20:55;;;;;;;20.27;12.60;;;25.50;99.60;;;;;;4920541;29;20036;-79
2023/08/24 01:23:37;;;;;;;20.55;12.48;;;25.40;99.80;;;;;;4905431;29;20039;-79
2023/08/24 01:26:09;;;;;;;19.80;12.35;;;25.30;99.90;;;;;;4918941;29;20048;-81
2023/08/24 01:28:38;;;;;;;24.55;13.55;;;25.20;99.90;;;;;;4941390;29;20032;-79
2023/08/24 01:31:21;;;;;;;15.57;12.30;;;25.40;99.90;;;;;;4902939;29;20062;-81
2023/08/24 01:33:49;;;;;;;18.00;12.55;;;25.50;99.90;;;;;;4927548;29;20044;-80
2023/08/24 01:36:19;;;;;;;16.33;12.43;;;25.40;99.90;;;;;;4892399;29;20135;-79
2023/08/24 01:39:30;;;;;;;21.05;13.15;;;25.20;99.90;;;;;;4920139;29;20063;-80
2023/08/24 01:42:03;;;;;;;17.27;13.05;;;25.30;99.90;;;;;;4887134;29;20044;-80
2023/08/24 01:44:36;;;;;;;16.30;12.73;;;25.50;99.90;;;;;;4918483;29;20052;-78
2023/08/24 01:47:05;;;;;;;16.33;12.77;;;25.40;99.90;;;;;;4917854;29;20448;-81
2023/08/24 01:49:34;;;;;;;19.45;12.73;;;25.40;99.90;;;;;;4883115;29;20051;-80
2023/08/24 01:52:04;;;;;;;17.30;12.18;;;25.30;99.90;;;;;;4917260;29;20055;-80
2023/08/24 01:54:32;;;;;;;18.20;12.83;;;25.20;99.90;;;;;;4935271;29;20039;-81
2023/08/24 01:57:04;;;;;;;18.08;12.95;;;25.10;99.90;;;;;;4919528;29;20475;-81
2023/08/24 01:59:31;;;;;;;18.40;12.25;;;25.10;99.90;;;;;;4917167;29;20048;-80
2023/08/24 02:01:59;;;;;;;14.05;11.88;;;25.20;99.90;;;;;;4920938;29;20401;-82
2023/08/24 02:04:30;;;;;;;20.48;12.48;;;25.00;99.90;;;;;;4916967;29;20111;-79
2023/08/24 02:06:58;;;;;;;19.17;12.25;;;25.00;99.90;;;;;;4892369;29;20404;-81
2023/08/24 02:09:26;;;;;;;20.80;12.80;;;24.90;99.90;;;;;;4884564;29;20272;-81
2023/08/24 02:11:53;;;;;;;19.33;13.82;;;24.80;99.90;;;;;;4934721;29;20388;-80
2023/08/24 02:14:20;;;;;;;16.75;12.82;;;25.00;99.90;;;;;;4933330;29;20377;-80
2023/08/24 02:16:48;;;;;;;20.25;12.93;;;25.00;99.90;;;;;;4938254;29;20043;-81
2023/08/24 02:19:15;;;;;;;15.90;11.70;;;24.90;99.90;;;;;;4932942;29;20063;-81
2023/08/24 02:21:43;;;;;;;17.08;12.45;;;24.90;99.90;;;;;;4935348;29;20123;-79
2023/08/24 02:24:10;;;;;;;16.45;11.50;;;24.90;99.90;;;;;;4913091;29;20325;-79
2023/08/24 02:26:38;;;;;;;18.92;12.27;;;24.80;99.90;;;;;;4922655;29;20036;-79
2023/08/24 02:29:06;;;;;;;18.30;12.32;;;24.70;99.90;;;;;;4913893;29;20052;-79
2023/08/24 02:31:33;;;;;;;21.77;13.50;;;24.60;99.90;;;;;;4932102;29;20075;-80
2023/08/24 02:34:00;;;;;;;20.55;13.30;;;24.50;99.90;;;;;;4933873;29;20040;-80
2023/08/24 02:36:28;;;;;;;18.67;11.85;;;24.40;99.90;;;;;;4913755;29;20035;-81
2023/08/24 02:38:56;;;;;;;16.63;13.38;;;24.70;99.90;;;;;;4912512;29;20039;-79
2023/08/24 02:41:23;;;;;;;19.27;12.57;;;24.80;99.90;;;;;;4893355;29;20063;-79
2023/08/24 02:43:50;;;;;;;14.75;12.73;;;24.80;99.90;;;;;;4911153;29;20067;-78
2023/08/24 02:46:20;;;;;;;18.27;12.82;;;24.80;99.90;;;;;;4932216;29;20766;-79
2023/08/24 02:48:47;;;;;;;21.33;12.60;;;24.50;99.90;;;;;;4921079;29;20119;-79
2023/08/24 02:51:15;;;;;;;19.75;12.55;;;24.20;99.90;;;;;;4914083;29;20036;-79
2023/08/24 02:53:42;;;;;;;15.30;12.02;;;24.10;99.90;;;;;;4917732;29;20079;-78
2023/08/24 02:56:09;;;;;;;15.32;11.70;;;24.10;99.90;;;;;;4930530;29;20071;-78
2023/08/24 02:58:37;;;;;;;16.45;12.00;;;24.20;99.90;;;;;;4930237;29;20416;-77
2023/08/24 03:01:07;;;;;;;17.67;12.10;;;24.40;99.90;;;;;;4931195;29;20044;-78
2023/08/24 03:03:37;;;;;;;;;;;24.40;99.90;;;;;;4916600;29;20035;-78
2023/08/24 03:06:07;;;;;;;14.50;11.35;;;24.40;99.90;;;;;;4913938;29;19919;-80
2023/08/24 03:08:36;;;;;;;16.75;12.38;;;24.60;99.90;;;;;;4918975;29;20047;-78
2023/08/24 03:11:04;;;;;;;18.23;12.45;;;24.60;99.90;;;;;;4895221;29;20044;-80
2023/08/24 03:13:33;;;;;;;15.68;12.60;;;24.30;99.90;;;;;;4900672;29;20036;-78
2023/08/24 03:16:04;;;;;;;18.58;12.57;;;24.30;99.90;;;;;;4913297;29;20055;-79
2023/08/24 03:18:32;;;;;;;18.10;12.57;;;24.20;99.90;;;;;;4916609;29;20067;-79
2023/08/24 03:21:01;;;;;;;15.82;12.07;;;24.20;99.90;;;;;;4930035;29;20483;-79
2023/08/24 03:23:28;;;;;;;14.98;11.75;;;24.30;99.90;;;;;;4914870;29;20071;-80
2023/08/24 03:25:56;;;;;;;15.35;12.70;;;24.30;99.90;;;;;;4913870;29;20070;-80
2023/08/24 03:28:23;;;;;;;18.75;12.73;;;24.30;99.90;;;;;;4934552;29;20118;-79
2023/08/24 03:30:54;;;;;;;15.65;12.20;;;24.40;99.90;;;;;;4916537;29;20103;-78
2023/08/24 03:33:23;;;;;;;18.50;12.20;;;24.30;99.90;;;;;;4928903;29;20050;-80
2023/08/24 03:35:50;;;;;;;15.50;12.73;;;24.30;99.90;;;;;;4912107;29;20483;-80
2023/08/24 03:38:18;;;;;;;15.10;12.60;;;24.40;99.90;;;;;;4917900;29;20036;-80
2023/08/24 03:40:45;;;;;;;16.08;11.85;;;24.30;99.90;;;;;;4918595;29;20398;-80
2023/08/24 03:43:12;;;;;;;16.08;12.48;;;24.30;99.90;;;;;;4911649;29;20427;-79
2023/08/24 03:45:41;;;;;;;15.88;12.60;;;24.20;99.90;;;;;;4894381;29;20480;-81
2023/08/24 03:48:09;;;;;;;17.25;12.43;;;24.20;99.90;;;;;;4913496;29;20453;-81
2023/08/24 03:50:36;;;;;;;15.88;11.20;;;24.10;99.90;;;;;;4933817;29;20120;-82
2023/08/24 03:53:06;;;;;;;17.67;12.25;;;24.00;99.90;;;;;;4934224;29;20066;-81
2023/08/24 03:55:34;;;;;;;16.35;12.35;;;24.00;99.90;;;;;;4930496;29;20040;-80
2023/08/24 03:58:01;;;;;;;16.55;11.98;;;23.80;99.90;;;;;;4915378;29;20537;-82
2023/08/24 04:00:30;;;;;;;21.38;12.13;;;23.80;99.90;;;;;;4906305;29;20036;-82
2023/08/24 04:02:58;;;;;;;16.00;11.98;;;23.80;99.90;;;;;;4930421;29;20091;-80
2023/08/24 04:05:25;;;;;;;17.27;12.07;;;23.90;99.90;;;;;;4931414;29;20038;-80
2023/08/24 04:07:53;;;;;;;16.85;12.05;;;24.10;99.90;;;;;;4916175;29;20563;-80
2023/08/24 04:10:21;;;;;;;17.90;12.63;;;24.10;99.90;;;;;;4885940;29;20032;-80
2023/08/24 04:12:50;;;;;;;20.83;12.95;;;24.00;99.90;;;;;;4929931;29;20050;-80
2023/08/24 04:15:17;;;;;;;19.90;12.13;;;23.90;99.90;;;;;;4898024;29;20031;-79
2023/08/24 04:17:45;;;;;;;15.38;12.27;;;23.90;99.90;;;;;;4912728;29;20063;-80
2023/08/24 04:20:15;;;;;;;16.38;12.45;;;24.00;99.90;;;;;;4920509;29;20051;-78
2023/08/24 04:22:43;;;;;;;15.85;11.77;;;24.00;99.90;;;;;;4935948;29;20361;-81
2023/08/24 04:25:12;;;;;;;16.50;12.07;;;24.00;99.90;;;;;;4932752;29;20511;-81
2023/08/24 04:27:39;;;;;;;16.52;10.88;;;24.10;99.90;;;;;;4904910;29;20040;-80
2023/08/24 04:30:11;;;;;;;20.27;12.50;;;24.10;99.90;;;;;;4933505;29;20039;-80
2023/08/24 04:32:40;;;;;;;;;;;24.10;99.90;;;;;;4920559;29;20047;-81
2023/08/24 04:35:10;;;;;;;16.10;11.38;;;24.20;99.90;;;;;;4921496;29;20331;-81
2023/08/24 04:37:38;;;;;;;19.95;12.65;;;24.40;99.90;;;;;;4910838;29;20040;-81
2023/08/24 04:40:16;;;;;;;15.60;12.27;;;24.40;99.90;;;;;;4923503;29;20028;-81
2023/08/24 04:42:47;;;;;;;18.05;12.73;;;24.40;99.90;;;;;;4918955;29;20067;-79
2023/08/24 04:45:17;;;;;;;16.38;11.45;;;24.30;99.90;;;;;;4914054;29;20069;-80
2023/08/24 04:47:44;;;;;;;19.27;11.80;;;24.20;99.90;;;;;;4933021;29;20123;-81
2023/08/24 04:50:12;;;;;;;15.93;11.85;;;24.20;99.90;;;;;;4934346;29;20088;-79
2023/08/24 04:52:39;;;;;;;18.63;13.05;;;24.30;99.90;;;;;;4921917;29;20047;-81
2023/08/24 04:55:14;;;;;;;25.85;20.25;;;24.40;99.90;;;;;;4917430;29;20130;-81
2023/08/24 04:57:42;;;;;;;21.90;16.23;;;24.20;99.90;;;;;;4900429;29;20048;-83
2023/08/24 05:00:16;;;;;;;51.83;37.65;;;24.20;99.90;;;;;;4918070;29;20036;-81
2023/08/24 05:02:44;;;;;;;38.70;28.02;;;24.40;99.90;;;;;;4930198;29;20104;-78
2023/08/24 05:05:15;;;;;;;24.80;16.05;;;24.50;99.90;;;;;;4919890;29;20533;-79
2023/08/24 05:07:43;;;;;;;71.15;47.95;;;24.80;99.90;;;;;;4915497;29;20097;-79
2023/08/24 05:10:11;;;;;;;92.95;64.72;;;24.80;99.90;;;;;;4935188;29;20068;-80
2023/08/24 05:12:39;;;;;;;127.25;90.63;;;25.00;99.90;;;;;;4921392;29;20032;-79
2023/08/24 05:15:07;;;;;;;71.00;51.13;;;24.80;99.90;;;;;;4929929;29;20041;-81
2023/08/24 05:17:34;;;;;;;28.80;20.08;;;24.80;99.90;;;;;;4933152;29;20070;-83
2023/08/24 05:20:13;;;;;;;21.95;14.65;;;24.80;99.90;;;;;;4922191;29;20043;-83
2023/08/24 05:22:47;;;;;;;18.30;12.32;;;24.80;99.90;;;;;;4898907;29;20028;-83
2023/08/24 05:25:17;;;;;;;14.73;11.85;;;24.90;99.90;;;;;;4906179;29;20047;-83
2023/08/24 05:27:48;;;;;;;16.73;12.38;;;24.70;99.90;;;;;;4901322;29;20052;-84
2023/08/24 05:30:16;;;;;;;16.30;12.15;;;24.50;99.90;;;;;;4905717;29;20043;-84
2023/08/24 05:32:44;;;;;;;19.15;11.80;;;24.50;99.90;;;;;;4930609;29;20083;-82
2023/08/24 05:35:13;;;;;;;15.82;11.93;;;24.30;99.90;;;;;;4916377;29;20071;-84
2023/08/24 05:37:55;;;;;;;18.10;12.90;;;24.40;99.90;;;;;;4920368;29;20052;-79
2023/08/24 05:40:24;;;;;;;80.10;55.83;;;24.60;99.90;;;;;;4912703;29;20059;-79
2023/08/24 05:42:53;;;;;;;41.13;28.63;;;24.80;99.90;;;;;;4914139;29;20751;-81
2023/08/24 05:45:20;;;;;;;17.38;13.73;;;24.90;99.90;;;;;;4913634;29;20803;-80
2023/08/24 05:47:53;;;;;;;18.92;12.75;;;25.10;99.90;;;;;;4911446;29;20040;-80
2023/08/24 05:50:22;;;;;;;19.77;12.30;;;25.00;99.90;;;;;;4914130;29;20054;-82
2023/08/24 05:52:50;;;;;;;17.58;12.43;;;25.20;99.90;;;;;;4929743;29;20043;-80
2023/08/24 05:55:18;;;;;;;18.88;12.18;;;25.00;99.90;;;;;;4909029;29;20043;-79
2023/08/24 05:57:46;;;;;;;17.02;12.68;;;25.10;99.90;;;;;;4907908;29;20047;-78
2023/08/24 06:00:13;;;;;;;16.90;11.57;;;25.10;99.90;;;;;;4915680;29;20038;-80
2023/08/24 06:02:41;;;;;;;19.00;12.05;;;25.20;99.90;;;;;;4933535;29;20040;-80
2023/08/24 06:05:11;;;;;;;22.98;12.77;;;25.30;99.90;;;;;;4933417;29;20052;-78
2023/08/24 06:07:39;;;;;;;28.88;13.30;;;25.40;99.90;;;;;;4904986;29;20047;-82
2023/08/24 06:10:07;;;;;;;76.68;56.63;;;25.50;99.90;;;;;;4923596;29;20046;-80
2023/08/24 06:12:35;;;;;;;43.42;30.88;;;25.30;99.90;;;;;;4905229;29;20040;-84
2023/08/24 06:15:04;;;;;;;117.45;85.28;;;25.40;99.90;;;;;;4888401;29;20435;-81
2023/08/24 06:17:32;;;;;;;25.85;21.98;;;25.50;99.90;;;;;;4929786;29;20036;-79
2023/08/24 06:19:59;;;;;;;19.75;14.80;;;25.40;99.90;;;;;;4918454;29;20102;-82
2023/08/24 06:22:28;;;;;;;26.50;14.82;;;25.30;99.90;;;;;;4901077;29;20102;-80
2023/08/24 06:25:01;;;;;;;22.45;14.43;;;25.20;99.90;;;;;;4917194;29;20043;-82
2023/08/24 06:27:28;;;;;;;19.85;13.52;;;25.40;99.90;;;;;;4901679;29;20500;-81
2023/08/24 06:29:55;;;;;;;18.17;13.60;;;25.50;99.90;;;;;;4913266;29;20144;-83
2023/08/24 06:32:25;;;;;;;22.90;13.07;;;25.50;99.90;;;;;;4934537;29;20063;-82
2023/08/24 06:34:55;;;;;;;17.15;13.20;;;25.50;99.90;;;;;;4923777;29;20899;-80
2023/08/24 06:37:23;;;;;;;20.65;12.85;;;25.50;99.90;;;;;;4910026;29;20068;-81
2023/08/24 06:39:53;;;;;;;19.23;13.13;;;25.60;99.90;;;;;;4935133;29;20094;-83
2023/08/24 06:42:37;;;;;;;18.23;12.93;;;25.60;99.90;;;;;;4926368;29;20111;-82
2023/08/24 06:45:09;;;;;;;17.48;13.77;;;25.60;99.90;;;;;;4931589;29;20068;-80
2023/08/24 06:47:37;;;;;;;18.70;14.50;;;25.70;99.90;;;;;;4932497;29;20123;-81
2023/08/24 06:50:07;;;;;;;15.15;12.75;;;25.70;99.90;;;;;;4922887;29;20071;-81
2023/08/24 06:52:54;;;;;;;19.98;12.45;;;25.80;99.90;;;;;;4900554;29;20119;-83
2023/08/24 06:55:37;;;;;;;22.50;13.15;;;26.00;99.90;;;;;;4906100;29;20043;-80
2023/08/24 06:58:22;;;;;;;17.08;12.65;;;26.10;99.90;;;;;;4909280;29;20090;-81
2023/08/24 07:01:06;;;;;;;19.45;14.40;;;26.20;99.90;;;;;;4921911;29;20499;-81
2023/08/24 07:03:47;;;;;;;18.17;12.63;;;26.30;99.90;;;;;;4909671;29;20070;-79
2023/08/24 07:06:15;;;;;;;23.60;14.15;;;26.30;99.90;;;;;;4932683;29;20059;-80
2023/08/24 07:08:56;;;;;;;21.65;13.68;;;26.30;99.90;;;;;;4935962;29;20082;-79
2023/08/24 07:11:24;;;;;;;19.30;13.52;;;26.20;99.90;;;;;;4931498;29;20036;-80
2023/08/24 07:13:53;;;;;;;19.38;13.80;;;26.30;99.90;;;;;;4927192;29;20039;-82
2023/08/24 07:16:24;;;;;;;16.65;13.10;;;26.40;99.90;;;;;;4935071;29;20152;-81
2023/08/24 07:18:51;;;;;;;19.45;14.57;;;26.60;99.90;;;;;;4940954;29;20043;-81
2023/08/24 07:21:28;;;;;;;23.13;14.73;;;26.70;99.90;;;;;;4934772;29;20052;-82
2023/08/24 07:24:20;;;;;;;17.02;13.40;;;26.70;99.90;;;;;;4941879;29;20032;-80
2023/08/24 07:27:05;;;;;;;20.48;13.95;;;26.80;99.90;;;;;;4915594;29;20036;-79
2023/08/24 07:29:35;;;;;;;20.23;13.88;;;26.90;99.90;;;;;;4902022;29;20083;-81
2023/08/24 07:32:03;;;;;;;22.33;12.60;;;27.00;99.90;;;;;;4937538;29;20119;-81
2023/08/24 07:34:34;;;;;;;28.23;14.05;;;27.10;99.90;;;;;;4916008;29;20107;-82
2023/08/24 07:37:01;;;;;;;21.70;13.98;;;27.10;99.90;;;;;;4923234;29;20044;-81
2023/08/24 07:39:37;;;;;;;18.90;13.80;;;27.20;99.90;;;;;;4921411;29;20040;-81
2023/08/24 07:42:08;;;;;;;18.42;12.90;;;27.30;99.90;;;;;;4933684;29;20076;-79
2023/08/24 07:44:35;;;;;;;18.92;13.90;;;27.40;99.90;;;;;;4933566;29;20063;-81
2023/08/24 07:47:05;;;;;;;16.75;12.90;;;27.50;99.90;;;;;;4907859;29;20147;-78
2023/08/24 07:49:33;;;;;;;21.95;12.95;;;27.50;99.90;;;;;;4938826;29;20469;-78
2023/08/24 07:52:02;;;;;;;18.77;13.48;;;27.50;99.90;;;;;;4916713;29;20040;-78
2023/08/24 07:54:30;;;;;;;21.52;14.30;;;27.60;99.90;;;;;;4926361;29;20091;-80
2023/08/24 07:56:57;;;;;;;16.98;14.38;;;27.60;99.90;;;;;;4920056;29;20054;-80
2023/08/24 07:59:25;;;;;;;17.85;13.02;;;27.60;99.90;;;;;;4910124;29;20051;-79
2023/08/24 08:01:56;;;;;;;21.65;13.50;;;27.70;99.90;;;;;;4918897;29;20052;-79
2023/08/24 08:04:27;;;;;;;19.35;13.57;;;27.80;99.90;;;;;;4914288;29;20115;-78
2023/08/24 08:07:19;;;;;;;19.67;12.70;;;27.90;99.90;;;;;;4920629;29;20102;-79
2023/08/24 08:09:47;;;;;;;18.88;13.57;;;28.00;99.90;;;;;;4904540;29;20449;-78
2023/08/24 08:12:14;;;;;;;21.60;13.63;;;28.10;99.90;;;;;;4920424;29;20408;-78
2023/08/24 08:14:42;;;;;;;19.33;13.55;;;28.10;99.90;;;;;;4909246;29;20110;-81
2023/08/24 08:17:11;;;;;;;19.27;12.75;;;28.10;99.90;;;;;;4919280;29;20058;-80
2023/08/24 08:19:43;;;;;;;19.83;12.60;;;28.10;99.40;;;;;;4920027;29;20110;-81
2023/08/24 08:22:27;;;;;;;17.70;12.70;;;28.20;99.60;;;;;;4927162;29;20047;-80
2023/08/24 08:24:56;;;;;;;24.45;13.73;;;28.30;99.20;;;;;;4907481;29;20050;-78
2023/08/24 08:27:25;;;;;;;18.60;12.80;;;28.40;99.30;;;;;;4904759;29;20048;-79
2023/08/24 08:30:06;;;;;;;19.00;13.35;;;28.40;99.60;;;;;;4899302;29;20293;-79
2023/08/24 08:32:37;;;;;;;17.35;13.30;;;28.40;98.80;;;;;;4916941;29;20488;-80
2023/08/24 08:35:05;;;;;;;15.60;12.85;;;28.60;98.40;;;;;;4936252;29;20377;-80
2023/08/24 08:37:39;;;;;;;16.48;13.27;;;28.80;98.50;;;;;;4938856;29;20048;-80
2023/08/24 08:40:30;;;;;;;25.90;13.00;;;28.90;97.50;;;;;;4912996;29;20059;-82
2023/08/24 08:43:11;;;;;;;20.45;12.68;;;29.00;97.80;;;;;;4908736;29;20048;-81
2023/08/24 08:45:51;;;;;;;18.02;12.90;;;29.00;97.60;;;;;;4909424;29;20534;-81
2023/08/24 08:48:21;;;;;;;18.40;12.98;;;29.20;96.80;;;;;;4898892;29;20051;-78
2023/08/24 08:50:59;;;;;;;20.70;12.82;;;29.30;96.90;;;;;;4927006;29;20118;-79
2023/08/24 08:53:28;;;;;;;20.30;12.48;;;29.60;96.50;;;;;;4919335;29;20499;-79
2023/08/24 08:56:03;;;;;;;15.90;13.30;;;29.70;96.20;;;;;;4920862;29;21990;-79
2023/08/24 08:58:31;;;;;;;17.20;12.52;;;29.70;96.50;;;;;;4895363;29;20044;-79
2023/08/24 09:01:07;;;;;;;19.17;13.35;;;29.70;95.50;;;;;;4934899;29;20032;-80
2023/08/24 09:03:38;;;;;;;15.70;13.20;;;29.80;95.20;;;;;;4906032;29;20043;-81
2023/08/24 09:06:07;;;;;;;19.83;13.25;;;30.00;95.30;;;;;;4910848;29;20091;-81
2023/08/24 09:08:38;;;;;;;18.08;12.85;;;30.10;95.20;;;;;;4927273;29;20044;-79
2023/08/24 09:11:08;;;;;;;16.85;12.60;;;30.20;94.80;;;;;;4912220;29;20496;-81
2023/08/24 09:13:42;;;;;;;20.20;13.32;;;30.30;94.00;;;;;;4918070;29;20059;-80
2023/08/24 09:16:30;;;;;;;16.80;11.98;;;30.30;94.50;;;;;;4911594;29;20055;-80
2023/08/24 09:18:58;;;;;;;15.45;11.10;;;30.60;92.80;;;;;;4914017;29;20500;-77
2023/08/24 09:21:41;;;;;;;15.35;10.55;;;30.80;92.40;;;;;;4925183;29;20040;-79
2023/08/24 09:24:10;;;;;;;12.52;9.88;;;31.20;91.40;;;;;;4895669;29;20108;-84
2023/08/24 09:26:45;;;;;;;13.55;9.95;;;31.10;89.70;;;;;;4895442;29;20092;-81
2023/08/24 09:29:15;;;;;;;13.27;9.90;;;31.00;90.30;;;;;;4904768;29;20048;-82
2023/08/24 09:31:46;;;;;;;13.52;10.30;;;31.30;89.70;;;;;;4936197;29;20052;-83
2023/08/24 09:34:14;;;;;;;12.45;9.20;;;31.40;87.80;;;;;;4905355;29;20496;-80
2023/08/24 09:36:42;;;;;;;12.55;9.55;;;31.40;87.00;;;;;;4909053;29;20114;-83
2023/08/24 09:39:20;;;;;;;11.65;9.40;;;31.70;86.80;;;;;;4918173;29;20040;-82
2023/08/24 09:41:50;;;;;;;11.32;9.55;;;31.80;82.60;;;;;;4919602;29;20050;-81
2023/08/24 09:44:20;;;;;;;14.45;9.05;;;31.70;84.90;;;;;;4936143;29;20044;-83
2023/08/24 09:46:49;;;;;;;15.82;10.23;;;32.00;84.20;;;;;;4930416;29;20040;-81
2023/08/24 09:49:19;;;;;;;12.05;9.75;;;32.00;83.80;;;;;;4931525;29;20111;-81
2023/08/24 09:51:48;;;;;;;13.68;10.18;;;32.00;84.00;;;;;;4914983;29;20051;-83
2023/08/24 09:54:22;;;;;;;14.52;9.48;;;32.20;84.20;;;;;;4901538;29;20051;-81
2023/08/24 09:56:50;;;;;;;15.57;9.30;;;32.50;82.40;;;;;;4915562;29;20040;-81
2023/08/24 09:59:24;;;;;;;14.75;10.10;;;32.20;82.80;;;;;;4925321;29;20049;-79
2023/08/24 10:02:02;;;;;;;12.77;9.43;;;32.20;82.50;;;;;;4924406;29;20048;-84
2023/08/24 10:04:35;;;;;;;11.63;9.05;;;32.40;82.00;;;;;;4914589;29;20492;-82
2023/08/24 10:07:15;;;;;;;15.80;10.02;;;32.60;81.60;;;;;;4917933;29;20049;-82
2023/08/24 10:10:03;;;;;;;13.52;9.77;;;32.70;81.40;;;;;;4903828;29;20099;-82
2023/08/24 10:12:46;;;;;;;19.35;11.73;;;32.70;81.30;;;;;;4927752;29;20091;-81
2023/08/24 10:15:23;;;;;;;12.45;10.13;;;32.90;80.90;;;;;;4914034;29;20052;-82
2023/08/24 10:18:11;;;;;;;13.70;10.20;;;33.00;80.30;;;;;;4933267;29;20055;-82
2023/08/24 10:20:43;;;;;;;;;;;32.90;80.10;;;;;;4921992;29;20538;-84
2023/08/24 10:23:15;;;;;;;12.95;9.68;;;33.00;79.80;;;;;;4902023;29;19922;-82
2023/08/24 10:25:57;;;;;;;13.48;10.20;;;33.00;79.40;;;;;;4937351;29;20043;-83
2023/08/24 10:28:51;;;;;;;16.67;10.05;;;33.20;79.50;;;;;;4933442;23;20035;-85
2023/08/24 10:31:41;;;;;;;14.65;10.73;;;33.20;79.30;;;;;;4895685;29;20066;-86
2023/08/24 10:34:38;;;;;;;13.38;10.05;;;33.10;79.60;;;;;;4892350;29;20037;-85
2023/08/24 10:37:34;;;;;;;;;;;33.30;78.40;;;;;;4897869;29;20065;-85
2023/08/24 10:52:25;;;;;;;12.45;10.27;;;34.00;76.10;;;;;;4966441;23;20053;-89
2023/08/24 11:01:58;;;;;;;11.35;9.63;;;34.10;75.30;;;;;;4920334;29;20055;-84
2023/08/24 11:15:47;;;;;;;11.00;9.13;;;34.50;73.10;;;;;;4953343;29;20508;-85
2023/08/24 11:18:29;;;;;;;13.20;10.13;;;34.60;71.60;;;;;;4922908;29;20039;-83
2023/08/24 11:39:31;;;;;;;10.80;8.77;;;35.50;69.50;;;;;;4943667;29;20082;-86
2023/08/24 11:42:21;;;;;;;14.70;9.85;;;35.60;69.00;;;;;;4956776;23;20435;-82
2023/08/24 11:45:11;;;;;;;13.05;8.55;;;35.30;68.70;;;;;;4923686;29;20066;-83
2023/08/24 11:47:39;;;;;;;17.30;8.68;;;34.40;65.90;;;;;;4870804;29;20037;-79
2023/08/24 11:50:08;;;;;;;16.55;8.95;;;33.90;67.30;;;;;;4884912;29;20038;-80
2023/08/24 11:52:43;;;;;;;15.15;7.93;;;33.40;66.40;;;;;;4874798;29;20444;-79
2023/08/24 11:55:12;;;;;;;17.52;7.97;;;33.00;67.20;;;;;;4895476;29;20044;-81
2023/08/24 11:57:48;;;;;;;16.88;9.40;;;32.70;68.90;;;;;;4894373;29;20049;-82
2023/08/24 12:00:21;;;;;;;20.45;8.90;;;32.30;69.20;;;;;;4892377;29;20052;-80
2023/08/24 12:02:49;;;;;;;18.05;9.68;;;31.60;74.30;;;;;;4889629;29;20401;-77
2023/08/24 12:05:26;;;;;;;13.05;10.27;;;31.30;79.00;;;;;;4895405;29;20036;-82
2023/08/24 12:07:54;;;;;;;12.70;9.02;;;31.10;78.50;;;;;;4874978;29;20053;-79
2023/08/24 12:10:22;;;;;;;28.27;9.38;;;31.10;76.20;;;;;;4893206;29;20466;-81
2023/08/24 12:13:05;;;;;;;15.75;8.98;;;31.10;74.50;;;;;;4886125;29;20426;-81
2023/08/24 12:15:45;;;;;;;21.20;9.95;;;30.20;80.30;;;;;;4863875;29;20064;-81
2023/08/24 12:18:13;;;;;;;19.88;10.35;;;29.50;85.20;;;;;;4895924;29;20047;-77
2023/08/24 12:20:41;;;;;;;15.75;10.55;;;28.80;88.20;;;;;;4888485;29;20045;-81
2023/08/24 12:23:10;;;;;;;20.45;10.05;;;28.50;90.00;;;;;;4876572;29;20384;-78
2023/08/24 12:25:38;;;;;;;15.75;9.35;;;28.40;91.20;;;;;;4895256;29;20396;-78
2023/08/24 12:28:14;;;;;;;15.95;9.98;;;28.30;91.90;;;;;;4872617;29;20140;-81
2023/08/24 12:30:53;;;;;;;16.65;9.57;;;28.40;92.20;;;;;;4877371;29;20533;-79
2023/08/24 12:33:28;;;;;;;15.65;10.50;;;28.30;91.60;;;;;;4874095;29;20041;-77
2023/08/24 12:36:02;;;;;;;16.98;11.18;;;28.40;92.20;;;;;;4884102;29;20058;-80
2023/08/24 12:38:38;;;;;;;15.48;9.73;;;27.50;97.60;;;;;;4889286;29;20037;-80
2023/08/24 12:41:07;;;;;;;16.10;12.15;;;27.20;94.40;;;;;;4894845;29;20119;-81
2023/08/24 12:43:35;;;;;;;15.65;9.82;;;27.80;94.60;;;;;;4889777;29;20041;-80
2023/08/24 12:46:07;;;;;;;12.90;9.80;;;28.00;93.90;;;;;;4871719;29;20049;-78
2023/08/24 12:48:36;;;;;;;12.68;9.55;;;28.30;92.30;;;;;;4895457;29;20075;-80
2023/08/24 12:51:04;;;;;;;14.77;10.02;;;28.60;92.50;;;;;;4886113;29;20437;-80
2023/08/24 12:53:32;;;;;;;15.95;10.82;;;28.90;93.00;;;;;;4886931;29;20068;-81
2023/08/24 12:56:02;;;;;;;16.08;11.98;;;29.00;92.80;;;;;;4897261;29;20045;-78
2023/08/24 12:58:30;;;;;;;15.90;10.50;;;28.80;99.90;;;;;;4883504;29;20036;-78
2023/08/24 13:00:59;;;;;;;25.43;12.80;;;28.10;99.90;;;;;;4894085;29;20385;-78
2023/08/24 13:03:28;;;;;;;20.05;13.23;;;28.20;99.90;;;;;;4895996;29;20363;-80
2023/08/24 13:05:55;;;;;;;15.50;10.98;;;27.80;99.90;;;;;;4879982;29;20045;-79
2023/08/24 13:08:35;;;;;;;15.48;11.38;;;27.60;99.90;;;;;;4867403;29;20037;-79
2023/08/24 13:11:03;;;;;;;17.00;11.90;;;27.60;99.90;;;;;;4890172;29;20044;-79
2023/08/24 13:13:30;;;;;;;17.73;11.95;;;27.80;99.90;;;;;;4875150;29;20426;-80
2023/08/24 13:15:58;;;;;;;16.02;10.55;;;27.90;99.90;;;;;;4887735;29;20138;-81
2023/08/24 13:18:26;;;;;;;16.63;9.95;;;27.50;99.90;;;;;;4883150;29;20032;-79
2023/08/24 13:20:54;;;;;;;20.63;11.00;;;27.60;99.90;;;;;;4887371;29;20486;-80
2023/08/24 13:23:29;;;;;;;15.25;11.27;;;27.70;99.90;;;;;;4889911;29;20037;-79
2023/08/24 13:26:02;;;;;;;14.43;11.63;;;27.80;99.90;;;;;;4847279;29;20101;-81
2023/08/24 13:28:30;;;;;;;15.23;11.02;;;27.80;99.90;;;;;;4829376;29;20378;-81
2023/08/24 13:30:57;;;;;;;16.65;11.73;;;27.80;99.90;;;;;;4883703;29;20040;-80
2023/08/24 13:33:25;;;;;;;16.80;11.45;;;27.80;99.90;;;;;;4867607;29;20048;-79
2023/08/24 13:35:53;;;;;;;15.52;11.65;;;27.80;99.90;;;;;;4887344;29;20041;-79
2023/08/24 13:38:20;;;;;;;17.40;11.23;;;27.90;99.90;;;;;;4879785;29;20452;-80